sensor_id;sensor_type;location;lat;lon;timestamp;temperature;humidity
49861;DHT22;35761;48.826;9.238;2023-05-07T00:00:33;16.70;34.60
49861;DHT22;35761;48.826;9.238;2023-05-07T00:03:03;16.70;34.50
49861;DHT22;35761;48.826;9.238;2023-05-07T00:05:34;16.70;34.80
49861;DHT22;35761;48.826;9.238;2023-05-07T00:08:05;16.70;34.70
49861;DHT22;35761;48.826;9.238;2023-05-07T00:10:35;16.60;34.60
49861;DHT22;35761;48.826;9.238;2023-05-07T00:13:06;16.60;34.70
49861;DHT22;35761;48.826;9.238;2023-05-07T00:15:39;16.70;34.60
49861;DHT22;35761;48.826;9.238;2023-05-07T00:18:09;16.60;34.80
49861;DHT22;35761;48.826;9.238;2023-05-07T00:20:40;16.50;35.10
49861;DHT22;35761;48.826;9.238;2023-05-07T00:23:11;16.50;35.30
49861;DHT22;35761;48.826;9.238;2023-05-07T00:25:41;16.40;35.50
49861;DHT22;35761;48.826;9.238;2023-05-07T00:28:12;16.40;35.70
49861;DHT22;35761;48.826;9.238;2023-05-07T00:30:45;16.40;35.80
49861;DHT22;35761;48.826;9.238;2023-05-07T00:33:15;16.40;36.00
49861;DHT22;35761;48.826;9.238;2023-05-07T00:35:47;16.30;36.10
49861;DHT22;35761;48.826;9.238;2023-05-07T00:38:18;16.30;36.50
49861;DHT22;35761;48.826;9.238;2023-05-07T00:40:49;16.20;36.60
49861;DHT22;35761;48.826;9.238;2023-05-07T00:43:19;16.20;36.70
49861;DHT22;35761;48.826;9.238;2023-05-07T00:45:52;16.20;37.00
49861;DHT22;35761;48.826;9.238;2023-05-07T00:48:23;16.20;36.90
49861;DHT22;35761;48.826;9.238;2023-05-07T00:50:54;16.10;37.90
49861;DHT22;35761;48.826;9.238;2023-05-07T00:53:25;16.20;37.00
49861;DHT22;35761;48.826;9.238;2023-05-07T00:55:55;16.20;36.80
49861;DHT22;35761;48.826;9.238;2023-05-07T00:58:28;16.20;37.00
49861;DHT22;35761;48.826;9.238;2023-05-07T01:01:02;16.10;37.60
49861;DHT22;35761;48.826;9.238;2023-05-07T01:03:32;16.00;37.80
49861;DHT22;35761;48.826;9.238;2023-05-07T01:06:04;16.00;38.00
49861;DHT22;35761;48.826;9.238;2023-05-07T01:08:36;16.00;38.10
49861;DHT22;35761;48.826;9.238;2023-05-07T01:11:08;15.90;38.50
49861;DHT22;35761;48.826;9.238;2023-05-07T01:13:39;15.90;38.70
49861;DHT22;35761;48.826;9.238;2023-05-07T01:16:13;15.80;39.10
49861;DHT22;35761;48.826;9.238;2023-05-07T01:18:44;15.70;39.20
49861;DHT22;35761;48.826;9.238;2023-05-07T01:21:17;15.70;39.30
49861;DHT22;35761;48.826;9.238;2023-05-07T01:23:51;15.70;39.40
49861;DHT22;35761;48.826;9.238;2023-05-07T01:26:22;15.70;39.50
49861;DHT22;35761;48.826;9.238;2023-05-07T01:28:53;15.70;43.60
49861;DHT22;35761;48.826;9.238;2023-05-07T01:31:24;15.70;39.70
49861;DHT22;35761;48.826;9.238;2023-05-07T01:33:56;15.70;39.80
49861;DHT22;35761;48.826;9.238;2023-05-07T01:36:28;15.60;39.70
49861;DHT22;35761;48.826;9.238;2023-05-07T01:39:02;15.60;39.90
49861;DHT22;35761;48.826;9.238;2023-05-07T01:41:32;15.60;40.10
49861;DHT22;35761;48.826;9.238;2023-05-07T01:44:03;15.50;39.70
49861;DHT22;35761;48.826;9.238;2023-05-07T01:46:36;15.50;40.40
49861;DHT22;35761;48.826;9.238;2023-05-07T01:49:06;15.50;40.40
49861;DHT22;35761;48.826;9.238;2023-05-07T01:51:37;15.50;41.50
49861;DHT22;35761;48.826;9.238;2023-05-07T01:54:10;15.40;41.10
49861;DHT22;35761;48.826;9.238;2023-05-07T01:56:41;15.40;41.50
49861;DHT22;35761;48.826;9.238;2023-05-07T01:59:12;15.30;41.70
49861;DHT22;35761;48.826;9.238;2023-05-07T02:01:43;15.30;41.70
49861;DHT22;35761;48.826;9.238;2023-05-07T02:04:13;15.30;41.80
49861;DHT22;35761;48.826;9.238;2023-05-07T02:06:44;15.20;41.90
49861;DHT22;35761;48.826;9.238;2023-05-07T02:09:18;15.20;41.90
49861;DHT22;35761;48.826;9.238;2023-05-07T02:11:50;15.20;42.40
49861;DHT22;35761;48.826;9.238;2023-05-07T02:14:22;15.20;42.50
49861;DHT22;35761;48.826;9.238;2023-05-07T02:16:53;15.10;42.50
49861;DHT22;35761;48.826;9.238;2023-05-07T02:19:23;15.10;42.50
49861;DHT22;35761;48.826;9.238;2023-05-07T02:21:54;15.10;42.50
49861;DHT22;35761;48.826;9.238;2023-05-07T02:24:32;15.10;43.00
49861;DHT22;35761;48.826;9.238;2023-05-07T02:27:02;15.00;43.10
49861;DHT22;35761;48.826;9.238;2023-05-07T02:29:33;15.00;43.20
49861;DHT22;35761;48.826;9.238;2023-05-07T02:32:04;15.00;43.20
49861;DHT22;35761;48.826;9.238;2023-05-07T02:34:34;15.00;43.30
49861;DHT22;35761;48.826;9.238;2023-05-07T02:37:05;15.00;43.50
49861;DHT22;35761;48.826;9.238;2023-05-07T02:39:38;14.90;43.60
49861;DHT22;35761;48.826;9.238;2023-05-07T02:42:09;14.90;43.70
49861;DHT22;35761;48.826;9.238;2023-05-07T02:44:39;14.90;43.70
49861;DHT22;35761;48.826;9.238;2023-05-07T02:47:11;14.90;44.00
49861;DHT22;35761;48.826;9.238;2023-05-07T02:49:42;14.90;43.90
49861;DHT22;35761;48.826;9.238;2023-05-07T02:52:13;14.90;44.00
49861;DHT22;35761;48.826;9.238;2023-05-07T02:54:46;14.80;44.00
49861;DHT22;35761;48.826;9.238;2023-05-07T02:57:17;14.80;43.90
49861;DHT22;35761;48.826;9.238;2023-05-07T02:59:47;14.80;44.20
49861;DHT22;35761;48.826;9.238;2023-05-07T03:02:20;14.70;44.10
49861;DHT22;35761;48.826;9.238;2023-05-07T03:04:51;14.70;44.30
49861;DHT22;35761;48.826;9.238;2023-05-07T03:07:21;14.70;44.60
49861;DHT22;35761;48.826;9.238;2023-05-07T03:09:54;14.60;44.80
49861;DHT22;35761;48.826;9.238;2023-05-07T03:12:24;14.50;45.20
49861;DHT22;35761;48.826;9.238;2023-05-07T03:14:55;14.50;45.40
49861;DHT22;35761;48.826;9.238;2023-05-07T03:17:25;14.50;45.60
49861;DHT22;35761;48.826;9.238;2023-05-07T03:19:56;14.50;45.50
49861;DHT22;35761;48.826;9.238;2023-05-07T03:22:26;14.50;45.60
49861;DHT22;35761;48.826;9.238;2023-05-07T03:24:59;14.40;45.50
49861;DHT22;35761;48.826;9.238;2023-05-07T03:27:30;14.40;45.50
49861;DHT22;35761;48.826;9.238;2023-05-07T03:30:01;14.40;46.00
49861;DHT22;35761;48.826;9.238;2023-05-07T03:32:32;14.30;46.30
49861;DHT22;35761;48.826;9.238;2023-05-07T03:35:06;14.30;46.60
49861;DHT22;35761;48.826;9.238;2023-05-07T03:37:37;14.30;46.70
49861;DHT22;35761;48.826;9.238;2023-05-07T03:40:13;14.20;46.60
49861;DHT22;35761;48.826;9.238;2023-05-07T03:42:48;14.10;46.90
49861;DHT22;35761;48.826;9.238;2023-05-07T03:45:20;14.10;47.20
49861;DHT22;35761;48.826;9.238;2023-05-07T03:47:59;14.00;47.30
49861;DHT22;35761;48.826;9.238;2023-05-07T03:50:30;14.00;47.60
49861;DHT22;35761;48.826;9.238;2023-05-07T03:53:01;14.00;47.80
49861;DHT22;35761;48.826;9.238;2023-05-07T03:55:36;14.00;47.90
49861;DHT22;35761;48.826;9.238;2023-05-07T03:58:07;14.00;47.40
49861;DHT22;35761;48.826;9.238;2023-05-07T04:00:37;14.00;47.40
49861;DHT22;35761;48.826;9.238;2023-05-07T04:03:23;13.90;47.60
49861;DHT22;35761;48.826;9.238;2023-05-07T04:05:57;13.90;48.00
49861;DHT22;35761;48.826;9.238;2023-05-07T04:08:28;13.90;48.50
49861;DHT22;35761;48.826;9.238;2023-05-07T04:11:01;13.80;48.40
49861;DHT22;35761;48.826;9.238;2023-05-07T04:13:33;13.80;48.50
49861;DHT22;35761;48.826;9.238;2023-05-07T04:16:06;13.80;48.60
49861;DHT22;35761;48.826;9.238;2023-05-07T04:18:37;13.80;48.80
49861;DHT22;35761;48.826;9.238;2023-05-07T04:21:14;13.70;48.70
49861;DHT22;35761;48.826;9.238;2023-05-07T04:23:46;13.70;48.90
49861;DHT22;35761;48.826;9.238;2023-05-07T04:26:19;13.70;49.20
49861;DHT22;35761;48.826;9.238;2023-05-07T04:28:51;13.70;49.20
49861;DHT22;35761;48.826;9.238;2023-05-07T04:31:22;13.60;49.30
49861;DHT22;35761;48.826;9.238;2023-05-07T04:33:54;13.70;49.30
49861;DHT22;35761;48.826;9.238;2023-05-07T04:36:24;13.70;49.30
49861;DHT22;35761;48.826;9.238;2023-05-07T04:39:00;13.70;49.70
49861;DHT22;35761;48.826;9.238;2023-05-07T04:41:35;13.70;49.90
49861;DHT22;35761;48.826;9.238;2023-05-07T04:44:07;13.70;50.20
49861;DHT22;35761;48.826;9.238;2023-05-07T04:46:38;13.70;50.30
49861;DHT22;35761;48.826;9.238;2023-05-07T04:49:09;13.70;50.30
49861;DHT22;35761;48.826;9.238;2023-05-07T04:51:40;13.70;50.40
49861;DHT22;35761;48.826;9.238;2023-05-07T04:54:12;13.70;50.40
49861;DHT22;35761;48.826;9.238;2023-05-07T04:56:46;13.70;50.70
49861;DHT22;35761;48.826;9.238;2023-05-07T04:59:17;13.70;50.50
49861;DHT22;35761;48.826;9.238;2023-05-07T05:01:49;13.70;50.30
49861;DHT22;35761;48.826;9.238;2023-05-07T05:04:19;13.70;50.50
49861;DHT22;35761;48.826;9.238;2023-05-07T05:06:50;13.70;50.70
49861;DHT22;35761;48.826;9.238;2023-05-07T05:09:21;13.70;50.80
49861;DHT22;35761;48.826;9.238;2023-05-07T05:11:54;13.70;50.90
49861;DHT22;35761;48.826;9.238;2023-05-07T05:14:24;13.70;51.10
49861;DHT22;35761;48.826;9.238;2023-05-07T05:16:55;13.80;51.30
49861;DHT22;35761;48.826;9.238;2023-05-07T05:19:25;13.80;51.20
49861;DHT22;35761;48.826;9.238;2023-05-07T05:21:56;13.70;51.30
49861;DHT22;35761;48.826;9.238;2023-05-07T05:24:29;13.70;51.20
49861;DHT22;35761;48.826;9.238;2023-05-07T05:27:03;13.80;51.40
49861;DHT22;35761;48.826;9.238;2023-05-07T05:29:34;13.80;51.50
49861;DHT22;35761;48.826;9.238;2023-05-07T05:32:04;13.80;51.90
49861;DHT22;35761;48.826;9.238;2023-05-07T05:34:35;13.80;52.00
49861;DHT22;35761;48.826;9.238;2023-05-07T05:37:06;13.90;52.00
49861;DHT22;35761;48.826;9.238;2023-05-07T05:39:36;13.90;52.00
49861;DHT22;35761;48.826;9.238;2023-05-07T05:42:11;13.90;51.60
49861;DHT22;35761;48.826;9.238;2023-05-07T05:44:41;13.80;51.40
49861;DHT22;35761;48.826;9.238;2023-05-07T05:47:12;13.80;51.70
49861;DHT22;35761;48.826;9.238;2023-05-07T05:49:42;13.80;52.50
49861;DHT22;35761;48.826;9.238;2023-05-07T05:52:15;13.80;52.60
49861;DHT22;35761;48.826;9.238;2023-05-07T05:54:47;13.80;52.50
49861;DHT22;35761;48.826;9.238;2023-05-07T05:57:21;13.90;52.70
49861;DHT22;35761;48.826;9.238;2023-05-07T05:59:55;14.00;52.60
49861;DHT22;35761;48.826;9.238;2023-05-07T06:02:25;14.00;52.60
49861;DHT22;35761;48.826;9.238;2023-05-07T06:04:56;14.00;52.50
49861;DHT22;35761;48.826;9.238;2023-05-07T06:07:27;14.10;52.50
49861;DHT22;35761;48.826;9.238;2023-05-07T06:09:58;14.10;52.40
49861;DHT22;35761;48.826;9.238;2023-05-07T06:12:32;14.20;52.30
49861;DHT22;35761;48.826;9.238;2023-05-07T06:15:03;14.20;51.40
49861;DHT22;35761;48.826;9.238;2023-05-07T06:17:34;14.30;51.20
49861;DHT22;35761;48.826;9.238;2023-05-07T06:20:06;14.40;51.40
49861;DHT22;35761;48.826;9.238;2023-05-07T06:22:39;14.40;51.10
49861;DHT22;35761;48.826;9.238;2023-05-07T06:25:11;14.40;50.90
49861;DHT22;35761;48.826;9.238;2023-05-07T06:27:45;14.40;50.20
49861;DHT22;35761;48.826;9.238;2023-05-07T06:30:16;14.40;49.80
49861;DHT22;35761;48.826;9.238;2023-05-07T06:32:47;14.50;50.00
49861;DHT22;35761;48.826;9.238;2023-05-07T06:35:18;14.50;49.90
49861;DHT22;35761;48.826;9.238;2023-05-07T06:37:48;14.50;49.70
49861;DHT22;35761;48.826;9.238;2023-05-07T06:40:23;14.50;49.40
49861;DHT22;35761;48.826;9.238;2023-05-07T06:42:56;14.60;49.40
49861;DHT22;35761;48.826;9.238;2023-05-07T06:45:40;14.60;49.40
49861;DHT22;35761;48.826;9.238;2023-05-07T06:48:10;14.60;49.40
49861;DHT22;35761;48.826;9.238;2023-05-07T06:50:54;14.60;49.70
49861;DHT22;35761;48.826;9.238;2023-05-07T06:53:26;14.60;49.80
49861;DHT22;35761;48.826;9.238;2023-05-07T06:55:59;14.70;51.10
49861;DHT22;35761;48.826;9.238;2023-05-07T06:58:33;14.70;50.90
49861;DHT22;35761;48.826;9.238;2023-05-07T07:01:04;14.80;50.10
49861;DHT22;35761;48.826;9.238;2023-05-07T07:03:36;14.80;49.40
49861;DHT22;35761;48.826;9.238;2023-05-07T07:06:07;14.80;49.30
49861;DHT22;35761;48.826;9.238;2023-05-07T07:08:37;14.90;48.60
49861;DHT22;35761;48.826;9.238;2023-05-07T07:11:11;14.90;47.90
49861;DHT22;35761;48.826;9.238;2023-05-07T07:13:44;14.90;48.30
49861;DHT22;35761;48.826;9.238;2023-05-07T07:16:15;15.00;48.40
49861;DHT22;35761;48.826;9.238;2023-05-07T07:18:46;15.10;48.40
49861;DHT22;35761;48.826;9.238;2023-05-07T07:21:16;15.10;47.00
49861;DHT22;35761;48.826;9.238;2023-05-07T07:23:47;15.20;46.90
49861;DHT22;35761;48.826;9.238;2023-05-07T07:26:19;15.30;45.70
49861;DHT22;35761;48.826;9.238;2023-05-07T07:28:52;15.30;45.10
49861;DHT22;35761;48.826;9.238;2023-05-07T07:31:23;15.40;45.10
49861;DHT22;35761;48.826;9.238;2023-05-07T07:33:54;15.50;46.50
49861;DHT22;35761;48.826;9.238;2023-05-07T07:36:25;15.60;45.90
49861;DHT22;35761;48.826;9.238;2023-05-07T07:39:12;15.70;45.60
49861;DHT22;35761;48.826;9.238;2023-05-07T07:41:44;15.80;45.50
49861;DHT22;35761;48.826;9.238;2023-05-07T07:44:18;15.90;44.30
49861;DHT22;35761;48.826;9.238;2023-05-07T07:49:26;16.00;43.40
49861;DHT22;35761;48.826;9.238;2023-05-07T07:51:59;16.10;42.50
49861;DHT22;35761;48.826;9.238;2023-05-07T07:54:32;16.20;42.40
49861;DHT22;35761;48.826;9.238;2023-05-07T07:57:04;16.20;41.50
49861;DHT22;35761;48.826;9.238;2023-05-07T07:59:37;16.40;40.20
49861;DHT22;35761;48.826;9.238;2023-05-07T08:02:12;16.40;41.00
49861;DHT22;35761;48.826;9.238;2023-05-07T08:04:43;16.50;42.20
49861;DHT22;35761;48.826;9.238;2023-05-07T08:07:14;16.60;41.30
49861;DHT22;35761;48.826;9.238;2023-05-07T08:09:47;16.60;41.60
49861;DHT22;35761;48.826;9.238;2023-05-07T08:12:21;16.60;41.30
49861;DHT22;35761;48.826;9.238;2023-05-07T08:14:54;16.70;41.60
49861;DHT22;35761;48.826;9.238;2023-05-07T08:17:25;16.80;40.90
49861;DHT22;35761;48.826;9.238;2023-05-07T08:19:56;16.90;40.70
49861;DHT22;35761;48.826;9.238;2023-05-07T08:22:27;16.90;40.60
49861;DHT22;35761;48.826;9.238;2023-05-07T08:24:57;17.00;41.30
49861;DHT22;35761;48.826;9.238;2023-05-07T08:27:29;17.00;42.00
49861;DHT22;35761;48.826;9.238;2023-05-07T08:30:03;17.10;40.30
49861;DHT22;35761;48.826;9.238;2023-05-07T08:32:35;17.20;39.40
49861;DHT22;35761;48.826;9.238;2023-05-07T08:35:07;17.30;39.10
49861;DHT22;35761;48.826;9.238;2023-05-07T08:37:38;17.40;39.90
49861;DHT22;35761;48.826;9.238;2023-05-07T08:40:09;17.40;40.40
49861;DHT22;35761;48.826;9.238;2023-05-07T08:42:42;17.40;39.50
49861;DHT22;35761;48.826;9.238;2023-05-07T08:45:19;17.50;39.50
49861;DHT22;35761;48.826;9.238;2023-05-07T08:47:55;17.50;39.30
49861;DHT22;35761;48.826;9.238;2023-05-07T08:50:35;17.50;38.80
49861;DHT22;35761;48.826;9.238;2023-05-07T08:53:06;17.50;38.90
49861;DHT22;35761;48.826;9.238;2023-05-07T08:55:38;17.60;38.60
49861;DHT22;35761;48.826;9.238;2023-05-07T08:58:08;17.60;39.00
49861;DHT22;35761;48.826;9.238;2023-05-07T09:00:46;17.60;38.70
49861;DHT22;35761;48.826;9.238;2023-05-07T09:03:17;17.80;39.00
49861;DHT22;35761;48.826;9.238;2023-05-07T09:05:51;17.80;39.00
49861;DHT22;35761;48.826;9.238;2023-05-07T09:08:25;17.90;39.10
49861;DHT22;35761;48.826;9.238;2023-05-07T09:11:01;18.00;38.50
49861;DHT22;35761;48.826;9.238;2023-05-07T09:13:31;18.10;38.50
49861;DHT22;35761;48.826;9.238;2023-05-07T09:16:15;18.20;37.20
49861;DHT22;35761;48.826;9.238;2023-05-07T09:18:46;18.30;37.50
49861;DHT22;35761;48.826;9.238;2023-05-07T09:21:17;18.30;37.50
49861;DHT22;35761;48.826;9.238;2023-05-07T09:23:53;18.40;37.50
49861;DHT22;35761;48.826;9.238;2023-05-07T09:26:32;18.40;37.50
49861;DHT22;35761;48.826;9.238;2023-05-07T09:29:04;18.50;38.10
49861;DHT22;35761;48.826;9.238;2023-05-07T09:31:39;18.60;36.60
49861;DHT22;35761;48.826;9.238;2023-05-07T09:34:13;18.70;34.90
49861;DHT22;35761;48.826;9.238;2023-05-07T09:36:45;18.90;33.50
49861;DHT22;35761;48.826;9.238;2023-05-07T09:39:16;18.90;34.60
49861;DHT22;35761;48.826;9.238;2023-05-07T09:41:47;19.00;35.40
49861;DHT22;35761;48.826;9.238;2023-05-07T09:44:24;19.10;35.90
49861;DHT22;35761;48.826;9.238;2023-05-07T09:47:00;19.10;36.80
49861;DHT22;35761;48.826;9.238;2023-05-07T09:49:38;19.10;35.70
49861;DHT22;35761;48.826;9.238;2023-05-07T09:52:11;19.20;34.20
49861;DHT22;35761;48.826;9.238;2023-05-07T09:54:48;19.30;34.50
49861;DHT22;35761;48.826;9.238;2023-05-07T09:57:24;19.40;35.70
49861;DHT22;35761;48.826;9.238;2023-05-07T10:00:02;19.50;32.10
49861;DHT22;35761;48.826;9.238;2023-05-07T10:02:51;19.60;30.50
49861;DHT22;35761;48.826;9.238;2023-05-07T10:05:30;19.70;31.00
49861;DHT22;35761;48.826;9.238;2023-05-07T10:08:01;19.80;30.60
49861;DHT22;35761;48.826;9.238;2023-05-07T10:10:35;19.90;31.10
49861;DHT22;35761;48.826;9.238;2023-05-07T10:13:10;20.00;29.20
49861;DHT22;35761;48.826;9.238;2023-05-07T10:15:45;20.00;30.30
49861;DHT22;35761;48.826;9.238;2023-05-07T10:18:21;20.10;28.60
49861;DHT22;35761;48.826;9.238;2023-05-07T10:21:07;20.30;29.30
49861;DHT22;35761;48.826;9.238;2023-05-07T10:23:38;20.30;29.70
49861;DHT22;35761;48.826;9.238;2023-05-07T10:26:11;20.40;29.80
49861;DHT22;35761;48.826;9.238;2023-05-07T10:28:47;20.50;26.80
49861;DHT22;35761;48.826;9.238;2023-05-07T10:31:52;20.60;28.40
49861;DHT22;35761;48.826;9.238;2023-05-07T10:34:40;20.70;29.00
49861;DHT22;35761;48.826;9.238;2023-05-07T10:37:14;20.80;28.00
49861;DHT22;35761;48.826;9.238;2023-05-07T10:39:45;20.80;27.80
49861;DHT22;35761;48.826;9.238;2023-05-07T10:42:16;20.90;28.80
49861;DHT22;35761;48.826;9.238;2023-05-07T10:44:52;20.90;29.10
49861;DHT22;35761;48.826;9.238;2023-05-07T10:47:27;21.10;29.00
49861;DHT22;35761;48.826;9.238;2023-05-07T10:50:24;21.20;28.90
49861;DHT22;35761;48.826;9.238;2023-05-07T10:53:21;21.20;29.40
49861;DHT22;35761;48.826;9.238;2023-05-07T10:56:23;21.20;28.10
49861;DHT22;35761;48.826;9.238;2023-05-07T10:59:34;21.30;28.30
49861;DHT22;35761;48.826;9.238;2023-05-07T11:02:22;21.30;27.60
49861;DHT22;35761;48.826;9.238;2023-05-07T11:05:18;21.40;26.60
49861;DHT22;35761;48.826;9.238;2023-05-07T11:08:04;21.50;26.20
49861;DHT22;35761;48.826;9.238;2023-05-07T11:10:49;21.60;26.10
49861;DHT22;35761;48.826;9.238;2023-05-07T11:13:44;21.60;25.40
49861;DHT22;35761;48.826;9.238;2023-05-07T11:16:25;21.60;26.70
49861;DHT22;35761;48.826;9.238;2023-05-07T11:19:05;21.70;27.80
49861;DHT22;35761;48.826;9.238;2023-05-07T11:21:43;21.80;26.00
49861;DHT22;35761;48.826;9.238;2023-05-07T11:24:42;21.90;25.90
49861;DHT22;35761;48.826;9.238;2023-05-07T11:27:23;22.00;25.10
49861;DHT22;35761;48.826;9.238;2023-05-07T11:29:55;22.00;24.20
49861;DHT22;35761;48.826;9.238;2023-05-07T11:32:27;22.00;24.30
49861;DHT22;35761;48.826;9.238;2023-05-07T11:35:00;22.00;23.40
49861;DHT22;35761;48.826;9.238;2023-05-07T11:37:31;22.00;24.30
49861;DHT22;35761;48.826;9.238;2023-05-07T11:40:07;22.00;24.50
49861;DHT22;35761;48.826;9.238;2023-05-07T11:42:41;22.10;24.20
49861;DHT22;35761;48.826;9.238;2023-05-07T11:45:12;22.30;23.80
49861;DHT22;35761;48.826;9.238;2023-05-07T11:47:53;22.20;23.40
49861;DHT22;35761;48.826;9.238;2023-05-07T11:50:24;22.20;24.10
49861;DHT22;35761;48.826;9.238;2023-05-07T11:52:54;22.20;23.00
49861;DHT22;35761;48.826;9.238;2023-05-07T11:55:28;22.10;22.90
49861;DHT22;35761;48.826;9.238;2023-05-07T11:57:58;22.10;23.60
49861;DHT22;35761;48.826;9.238;2023-05-07T12:00:29;22.20;22.40
49861;DHT22;35761;48.826;9.238;2023-05-07T12:03:03;22.20;22.60
49861;DHT22;35761;48.826;9.238;2023-05-07T12:05:34;22.10;22.00
49861;DHT22;35761;48.826;9.238;2023-05-07T12:08:09;22.00;21.70
49861;DHT22;35761;48.826;9.238;2023-05-07T12:10:48;22.00;21.70
49861;DHT22;35761;48.826;9.238;2023-05-07T12:13:21;22.00;21.40
49861;DHT22;35761;48.826;9.238;2023-05-07T12:15:55;22.00;22.10
49861;DHT22;35761;48.826;9.238;2023-05-07T12:18:26;21.90;21.60
49861;DHT22;35761;48.826;9.238;2023-05-07T12:20:57;21.90;21.80
49861;DHT22;35761;48.826;9.238;2023-05-07T12:23:29;21.90;22.10
49861;DHT22;35761;48.826;9.238;2023-05-07T12:26:03;21.80;21.50
49861;DHT22;35761;48.826;9.238;2023-05-07T12:28:38;21.80;22.20
49861;DHT22;35761;48.826;9.238;2023-05-07T12:31:09;21.80;23.00
49861;DHT22;35761;48.826;9.238;2023-05-07T12:33:40;21.70;23.70
49861;DHT22;35761;48.826;9.238;2023-05-07T12:36:12;21.70;23.40
49861;DHT22;35761;48.826;9.238;2023-05-07T12:38:43;21.70;23.70
49861;DHT22;35761;48.826;9.238;2023-05-07T12:41:16;21.60;23.60
49861;DHT22;35761;48.826;9.238;2023-05-07T12:43:56;21.60;23.80
49861;DHT22;35761;48.826;9.238;2023-05-07T12:46:27;21.60;23.30
49861;DHT22;35761;48.826;9.238;2023-05-07T12:48:57;21.70;23.30
49861;DHT22;35761;48.826;9.238;2023-05-07T12:51:28;21.60;24.00
49861;DHT22;35761;48.826;9.238;2023-05-07T12:53:59;21.50;24.30
49861;DHT22;35761;48.826;9.238;2023-05-07T12:56:35;21.20;27.00
49861;DHT22;35761;48.826;9.238;2023-05-07T12:59:06;20.90;28.20
49861;DHT22;35761;48.826;9.238;2023-05-07T13:01:37;20.70;29.80
49861;DHT22;35761;48.826;9.238;2023-05-07T13:04:07;20.60;31.10
49861;DHT22;35761;48.826;9.238;2023-05-07T13:06:38;20.30;33.60
49861;DHT22;35761;48.826;9.238;2023-05-07T13:09:08;20.00;35.00
49861;DHT22;35761;48.826;9.238;2023-05-07T13:11:41;19.80;36.20
49861;DHT22;35761;48.826;9.238;2023-05-07T13:14:12;19.70;35.50
49861;DHT22;35761;48.826;9.238;2023-05-07T13:16:43;19.50;34.10
49861;DHT22;35761;48.826;9.238;2023-05-07T13:19:14;19.40;33.70
49861;DHT22;35761;48.826;9.238;2023-05-07T13:21:44;19.20;32.60
49861;DHT22;35761;48.826;9.238;2023-05-07T13:24:17;19.00;34.30
49861;DHT22;35761;48.826;9.238;2023-05-07T13:26:50;18.80;32.90
49861;DHT22;35761;48.826;9.238;2023-05-07T13:29:20;18.50;34.30
49861;DHT22;35761;48.826;9.238;2023-05-07T13:31:56;18.40;37.70
49861;DHT22;35761;48.826;9.238;2023-05-07T13:34:28;18.30;38.50
49861;DHT22;35761;48.826;9.238;2023-05-07T13:36:58;18.20;38.30
49861;DHT22;35761;48.826;9.238;2023-05-07T13:39:29;18.20;36.00
49861;DHT22;35761;48.826;9.238;2023-05-07T13:42:02;18.30;36.70
49861;DHT22;35761;48.826;9.238;2023-05-07T13:44:33;18.20;36.90
49861;DHT22;35761;48.826;9.238;2023-05-07T13:47:03;18.20;34.70
49861;DHT22;35761;48.826;9.238;2023-05-07T13:49:34;18.30;34.60
49861;DHT22;35761;48.826;9.238;2023-05-07T13:52:04;18.30;33.90
49861;DHT22;35761;48.826;9.238;2023-05-07T13:54:35;18.30;33.50
49861;DHT22;35761;48.826;9.238;2023-05-07T13:57:08;18.30;33.40
49861;DHT22;35761;48.826;9.238;2023-05-07T13:59:38;18.30;29.90
49861;DHT22;35761;48.826;9.238;2023-05-07T14:02:09;18.40;29.80
49861;DHT22;35761;48.826;9.238;2023-05-07T14:04:39;18.50;31.70
49861;DHT22;35761;48.826;9.238;2023-05-07T14:07:10;18.50;32.70
49861;DHT22;35761;48.826;9.238;2023-05-07T14:09:40;18.50;29.80
49861;DHT22;35761;48.826;9.238;2023-05-07T14:12:15;18.50;30.80
49861;DHT22;35761;48.826;9.238;2023-05-07T14:14:45;18.50;32.50
49861;DHT22;35761;48.826;9.238;2023-05-07T14:17:17;18.50;28.20
49861;DHT22;35761;48.826;9.238;2023-05-07T14:19:50;18.50;35.00
49861;DHT22;35761;48.826;9.238;2023-05-07T14:22:21;18.10;37.20
49861;DHT22;35761;48.826;9.238;2023-05-07T14:24:52;17.60;39.60
49861;DHT22;35761;48.826;9.238;2023-05-07T14:27:35;17.20;42.70
49861;DHT22;35761;48.826;9.238;2023-05-07T14:30:07;17.10;44.20
49861;DHT22;35761;48.826;9.238;2023-05-07T14:32:38;17.10;44.90
49861;DHT22;35761;48.826;9.238;2023-05-07T14:35:12;17.00;46.30
49861;DHT22;35761;48.826;9.238;2023-05-07T14:37:42;17.00;46.60
49861;DHT22;35761;48.826;9.238;2023-05-07T14:40:13;16.90;46.30
49861;DHT22;35761;48.826;9.238;2023-05-07T14:42:46;16.90;46.70
49861;DHT22;35761;48.826;9.238;2023-05-07T14:45:18;16.80;47.00
49861;DHT22;35761;48.826;9.238;2023-05-07T14:47:48;17.00;47.00
49861;DHT22;35761;48.826;9.238;2023-05-07T14:50:19;16.90;47.90
49861;DHT22;35761;48.826;9.238;2023-05-07T14:52:49;17.00;47.00
49861;DHT22;35761;48.826;9.238;2023-05-07T14:55:20;17.10;46.70
49861;DHT22;35761;48.826;9.238;2023-05-07T14:57:53;17.20;46.80
49861;DHT22;35761;48.826;9.238;2023-05-07T15:00:24;17.30;46.70
49861;DHT22;35761;48.826;9.238;2023-05-07T15:02:56;17.30;46.40
49861;DHT22;35761;48.826;9.238;2023-05-07T15:05:35;17.40;46.50
49861;DHT22;35761;48.826;9.238;2023-05-07T15:08:06;17.40;46.10
49861;DHT22;35761;48.826;9.238;2023-05-07T15:10:39;17.50;47.40
49861;DHT22;35761;48.826;9.238;2023-05-07T15:13:13;17.60;48.50
49861;DHT22;35761;48.826;9.238;2023-05-07T15:15:44;17.60;47.90
49861;DHT22;35761;48.826;9.238;2023-05-07T15:18:15;17.70;48.80
49861;DHT22;35761;48.826;9.238;2023-05-07T15:20:49;17.70;49.60
49861;DHT22;35761;48.826;9.238;2023-05-07T15:23:19;17.80;49.20
49861;DHT22;35761;48.826;9.238;2023-05-07T15:25:50;17.70;48.40
49861;DHT22;35761;48.826;9.238;2023-05-07T15:28:24;17.70;49.10
49861;DHT22;35761;48.826;9.238;2023-05-07T15:30:57;17.70;48.50
49861;DHT22;35761;48.826;9.238;2023-05-07T15:33:28;17.70;48.50
49861;DHT22;35761;48.826;9.238;2023-05-07T15:35:58;17.60;48.20
49861;DHT22;35761;48.826;9.238;2023-05-07T15:38:30;17.70;48.90
49861;DHT22;35761;48.826;9.238;2023-05-07T15:41:00;17.70;49.60
49861;DHT22;35761;48.826;9.238;2023-05-07T15:43:34;17.70;50.00
49861;DHT22;35761;48.826;9.238;2023-05-07T15:46:17;17.70;50.10
49861;DHT22;35761;48.826;9.238;2023-05-07T15:48:48;17.70;51.20
49861;DHT22;35761;48.826;9.238;2023-05-07T15:51:19;17.70;52.10
49861;DHT22;35761;48.826;9.238;2023-05-07T15:53:50;17.70;53.90
49861;DHT22;35761;48.826;9.238;2023-05-07T15:56:20;17.80;53.20
49861;DHT22;35761;48.826;9.238;2023-05-07T15:58:54;17.70;50.60
49861;DHT22;35761;48.826;9.238;2023-05-07T16:01:25;17.70;49.40
49861;DHT22;35761;48.826;9.238;2023-05-07T16:03:55;17.80;50.30
49861;DHT22;35761;48.826;9.238;2023-05-07T16:06:26;17.80;51.40
49861;DHT22;35761;48.826;9.238;2023-05-07T16:08:57;17.70;51.40